Britannia — 2HHG5 — position and weather

sailwx.info

Track history (hours):
 
Tides and Currents Weather Stations Pressure Air Temp Water Temp Dewpoint Dewpoint Depression Visibility Wind Speed Wind Dir Waves Ship Positions

Britannia

Last reported at 2018-Jun-20 04:00 UTC. Time now 2018-Jun-20 04:00 UTC.
Position N 61°52' E 005°46'.

Length 330 m; draft 8.5 m.

Type: Passenger vessel. MMSI: 235106595.

Date/timePositionNaut miles runAvg speedWind from/ knotsBaromVisibWave heightAir tempDewpointWater temp
2018-Jun-20 04:00N 61°52' E 005°46'917.3
2018-Jun-20 03:30N 61°55' E 005°29'918.0
2018-Jun-20 03:00N 61°54' E 005°10'816.7
2018-Jun-20 02:30N 61°58' E 004°55'816.4
2018-Jun-20 02:00N 61°57' E 004°38'815.9
2018-Jun-20 01:29N 61°50' E 004°31'816.5
2018-Jun-20 01:00N 61°42' E 004°24'917.0
2018-Jun-20 00:30N 61°34' E 004°21'917.3
2018-Jun-20 00:00N 61°25' E 004°20'5447.2
2018-Jun-20 00:00N 61°30' E 004°18'1427.8 220 / 311010.110.8 10.2 8.810.8
2018-Jun-19 23:29N 61°16' E 004°19'918.6
2018-Jun-19 23:00N 61°07' E 004°18'1019.5
2018-Jun-19 22:29N 60°57' E 004°17'10420.0
2018-Jun-19 17:18N 59°14' E 004°40'3 9.0
2018-Jun-19 17:00N 59°12' E 004°36'7168.1 270 / 311015.6 5.4 13.0 6.812.2
2018-Jun-19 16:57N 59°10' E 004°49'716.6
2018-Jun-19 16:30N 59°07' E 005°02'917.2
2018-Jun-19 16:00N 59°06' E 005°19'816.4
2018-Jun-19 15:30N 59°04' E 005°34'713.5
2018-Jun-19 15:00N 58°59' E 005°43'1 1.3
2018-Jun-19 14:30N 58°59' E 005°44'0 0.0
2018-Jun-19 14:00N 58°59' E 005°44'0 0.0
2018-Jun-19 13:30N 58°59' E 005°44'0 0.0
2018-Jun-19 13:00N 58°59' E 005°44'0 0.0
2018-Jun-19 12:30N 58°59' E 005°44'0 0.0
2018-Jun-19 12:00N 58°59' E 005°44'0 0.0
2018-Jun-19 11:30N 58°59' E 005°44'0 0.0
2018-Jun-19 11:00N 58°59' E 005°44'0 0.0
2018-Jun-19 10:30N 58°59' E 005°44'0 0.0
2018-Jun-19 10:00N 58°59' E 005°44'0 0.0
2018-Jun-19 09:30N 58°59' E 005°44'0 0.0
2018-Jun-19 09:00N 58°59' E 005°44'0 0.0
2018-Jun-19 08:30N 58°59' E 005°44'0 0.0
2018-Jun-19 08:00N 58°59' E 005°44'0 0.0
2018-Jun-19 07:30N 58°59' E 005°44'0 0.0
2018-Jun-19 07:00N 58°59' E 005°44'0 0.0
2018-Jun-19 06:30N 58°59' E 005°44'0 0.0
2018-Jun-19 06:00N 58°59' E 005°44'0 0.3
2018-Jun-19 05:30N 58°59' E 005°44'2 4.9
2018-Jun-19 05:00N 59°00' E 005°41'5 9.4
2018-Jun-19 04:30N 59°02' E 005°32'714.4
2018-Jun-19 04:00N 58°55' E 005°33'612.8
2018-Jun-19 03:30N 58°50' E 005°27'917.5
2018-Jun-19 03:00N 58°42' E 005°17'917.9
2018-Jun-19 02:30N 58°34' E 005°11'918.0
2018-Jun-19 01:59N 58°25' E 005°05'3216.2
2018-Jun-19 00:00N 57°54' E 004°48'5217.3 260 / 351007.4 5.4 13.510.213.9
2018-Jun-18 21:00N 57°06' E 004°12'16020.0 210 / 181010.610.8 14.010.212.9
2018-Jun-18 13:00N 54°30' E 003°06'6917.3 270 / 241015.510.8 14.711.313.9
2018-Jun-18 09:00N 53°24' E 002°30'2916.6 250 / 251016.010.8 14.813.713.5
2018-Jun-18 07:15N 52°55' E 002°28'418.0
2018-Jun-18 07:00N 52°51' E 002°27'1118.5
2018-Jun-18 06:25N 52°40' E 002°24'818.4
2018-Jun-18 06:00N 52°32' E 002°22'1514.5
2018-Jun-18 05:00N 52°18' E 002°18'1536.3 240 / 221016.3 2.2 14.313.412.9
2018-Jun-18 04:34N 52°03' E 002°15'221.7
2018-Jun-18 04:29N 52°01' E 002°14'1221.3
2018-Jun-18 03:54N 51°49' E 002°10'821.2
2018-Jun-18 03:30N 51°41' E 002°04'1121.2
2018-Jun-18 03:00N 51°32' E 001°56'918.5
2018-Jun-18 02:30N 51°23' E 002°02'1121.1
2018-Jun-18 02:00N 51°15' E 001°52'1121.8
2018-Jun-18 01:30N 51°06' E 001°41'1121.3
2018-Jun-18 01:00N 50°59' E 001°29'195.0
2018-Jun-18 01:00N 51°00' E 001°30'1123.7 210 / 231017.6 5.4 14.514.114.1
2018-Jun-18 00:30N 50°49' E 001°23'1019.2
2018-Jun-18 00:00N 50°41' E 001°17'1120.7
2018-Jun-17 23:29N 50°33' E 001°04'1020.6
2018-Jun-17 23:00N 50°30' E 000°49'1121.2
2018-Jun-17 22:28N 50°27' E 000°33'612.6
2018-Jun-17 22:00N 50°24' E 000°24'1430.0 220 / 251019.0 5.4 14.413.713.5
2018-Jun-17 21:32N 50°22' E 000°03'620.1
2018-Jun-17 21:15N 50°22' W 000°06'719.9
2018-Jun-17 20:52N 50°26' W 000°17'719.6
2018-Jun-17 20:31N 50°29' W 000°27'1019.2
2018-Jun-17 20:01N 50°33' W 000°40'918.4
2018-Jun-17 19:31N 50°38' W 000°53'510.1
2018-Jun-17 19:01N 50°42' W 000°58'816.8
2018-Jun-17 18:31N 50°46' W 001°09'611.7
2018-Jun-17 18:01N 50°48' W 001°18'511.0
2018-Jun-17 17:30N 50°53' W 001°23'1 1.9
2018-Jun-17 16:58N 50°53' W 001°24'0 0.0
2018-Jun-17 16:28N 50°53' W 001°24'0 0.0
2018-Jun-17 15:58N 50°53' W 001°24'0 0.0
2018-Jun-17 15:28N 50°53' W 001°24'0 0.0
2018-Jun-17 14:58N 50°53' W 001°24'0 0.0
2018-Jun-17 14:28N 50°53' W 001°24'0 0.0
2018-Jun-17 13:58N 50°53' W 001°24'0 0.0
2018-Jun-17 13:28N 50°53' W 001°24'0 0.0
2018-Jun-17 12:58N 50°53' W 001°24'0 0.0
2018-Jun-17 12:28N 50°53' W 001°24'0 0.0
2018-Jun-17 11:58N 50°53' W 001°24'0 0.0
2018-Jun-17 11:28N 50°53' W 001°24'0 0.0
2018-Jun-17 10:58N 50°53' W 001°24'0 0.0
2018-Jun-17 10:25N 50°53' W 001°24'0 0.0
2018-Jun-17 09:58N 50°53' W 001°24'0 0.0
2018-Jun-17 09:28N 50°53' W 001°24'0 0.0
2018-Jun-17 08:58N 50°53' W 001°24'0 0.0
2018-Jun-17 08:28N 50°53' W 001°24'0 0.0
2018-Jun-17 07:58N 50°53' W 001°24'0 0.0
2018-Jun-17 07:25N 50°53' W 001°24'0 0.0
2018-Jun-17 06:58N 50°53' W 001°24'0 0.0
2018-Jun-17 06:28N 50°53' W 001°24'0 0.0
2018-Jun-17 05:58N 50°53' W 001°24'0 0.0
2018-Jun-17 05:25N 50°53' W 001°24'0 0.0
2018-Jun-17 04:58N 50°53' W 001°24'0 0.4
2018-Jun-17 04:30N 50°53' W 001°24'3 5.2
2018-Jun-17 04:00N 50°52' W 001°21'4 8.3
2018-Jun-17 03:30N 50°48' W 001°18'611.4
2018-Jun-17 03:01N 50°46' W 001°10'917.7
2018-Jun-17 02:31N 50°41' W 000°58'5 9.6
2018-Jun-17 02:00N 50°36' W 000°59'611.7
2018-Jun-17 01:30N 50°31' W 001°04'1017.2
2018-Jun-17 00:57N 50°28' W 001°18'919.7
2018-Jun-17 00:30N 50°25' W 001°32'1220.3
2018-Jun-16 23:55N 50°22' W 001°50'1020.0
2018-Jun-16 23:26N 50°19' W 002°04'818.2
2018-Jun-16 23:00N 50°12' W 002°09'1118.6
2018-Jun-16 22:26N 50°02' W 002°15'818.2
2018-Jun-16 22:00N 49°57' W 002°24'1420.0
2018-Jun-16 21:17N 49°53' W 002°45'619.5
2018-Jun-16 21:00N 49°51' W 002°53'12742.8
2018-Jun-16 21:00N 49°54' W 002°36'2143.2 250 / 101017.310.8
2018-Jun-16 20:30N 49°45' W 003°05'1019.3
2018-Jun-16 20:00N 49°39' W 003°17'5217.1
2018-Jun-16 17:00N 49°06' W 004°18'2031.4 250 / 121021.310.8 15.511.816.1
2018-Jun-16 16:21N 48°55' W 004°43'720.3
2018-Jun-16 16:00N 48°51' W 004°52'1020.7
2018-Jun-16 15:30N 48°45' W 005°05'1020.6
2018-Jun-16 15:00N 48°37' W 005°16'1020.1
2018-Jun-16 14:30N 48°29' W 005°25'4618.2
2018-Jun-16 12:00N 47°48' W 005°54'13218.8 300 / 251017.910.8 15.313.315.7
2018-Jun-16 05:00N 45°54' W 007°30'7619.0 240 / 191018.4 2.2 15.811.616.6
2018-Jun-16 01:00N 44°48' W 008°24'15619.5 190 / 101020.010.8 15.014.116.9
2018-Jun-15 17:00N 42°24' W 009°48'10220.4 040 / 271018.110.8 20.010.915.9
2018-Jun-15 12:00N 40°42' W 009°48'2720.1 030 / 291019.110.8 16.713.316.8
2018-Jun-15 10:38N 40°15' W 009°51'219.3
2018-Jun-15 10:31N 40°12' W 009°52'1019.6
2018-Jun-15 10:00N 40°02' W 009°52'919.2
2018-Jun-15 09:31N 39°53' W 009°51'1019.3
2018-Jun-15 09:01N 39°43' W 009°51'1019.4
2018-Jun-15 08:30N 39°34' W 009°52'1019.5
2018-Jun-15 08:00N 39°24' W 009°53'1019.3
2018-Jun-15 07:30N 39°14' W 009°52'1019.2
2018-Jun-15 07:00N 39°05' W 009°51'1019.3
2018-Jun-15 06:30N 38°55' W 009°51'918.8
2018-Jun-15 06:00N 38°46' W 009°51'918.6
2018-Jun-15 05:30N 38°37' W 009°50'919.0
2018-Jun-15 05:00N 38°27' W 009°47'1019.0
2018-Jun-15 04:30N 38°18' W 009°44'918.8
2018-Jun-15 04:00N 38°09' W 009°41'918.9
2018-Jun-15 03:30N 37°60' W 009°39'918.7
2018-Jun-15 03:01N 37°51' W 009°36'1018.8
2018-Jun-15 02:30N 37°41' W 009°33'919.0
2018-Jun-15 02:00N 37°32' W 009°31'918.6
2018-Jun-15 01:30N 37°23' W 009°28'918.2
2018-Jun-15 01:01N 37°14' W 009°25'3150.1
2018-Jun-15 01:00N 37°12' W 009°24'714.1 030 / 271014.410.8 16.715.217.0
2018-Jun-15 00:30N 37°05' W 009°23'918.1
2018-Jun-14 23:59N 36°56' W 009°20'817.7
2018-Jun-14 23:31N 36°49' W 009°14'918.3
2018-Jun-14 23:01N 36°43' W 009°06'918.6
2018-Jun-14 22:30N 36°40' W 008°55'918.6
2018-Jun-14 22:00N 36°38' W 008°44'1818.7
2018-Jun-14 21:04N 36°32' W 008°23'118.8
2018-Jun-14 21:00N 36°32' W 008°21'726811.0
2018-Jun-14 21:00N 36°30' W 008°30'5621.3 350 / 251014.310.8 18.014.618.9
2018-Jun-14 18:22N 36°16' W 007°23'2115.3
2018-Jun-14 17:00N 36°06' W 007°00'6919.6 330 / 131013.0 5.4 20.116.318.4
2018-Jun-14 13:28N 35°58' W 005°35'612.7
2018-Jun-14 13:00N 35°54' W 005°30'7274.5 310 / 251014.6 5.4 18.516.916.1
2018-Jun-14 12:58N 36°01' W 005°27'511.3
2018-Jun-14 12:30N 36°05' W 005°23'4 0.7
2018-Jun-14 06:05N 36°09' W 005°22'0 0.0
2018-Jun-14 05:59N 36°09' W 005°22'0 0.2
2018-Jun-14 05:30N 36°09' W 005°22'3 5.3
2018-Jun-14 05:01N 36°06' W 005°22'611.2
2018-Jun-14 04:30N 36°06' W 005°15'917.6
2018-Jun-14 03:59N 36°08' W 005°04'816.9
2018-Jun-14 03:30N 36°08' W 004°54'916.6
2018-Jun-14 02:56N 36°10' W 004°42'4414.9
2018-Jun-14 00:00N 36°12' W 003°48'5417.9 260 / 251013.110.8 17.515.816.8
2018-Jun-13 21:00N 36°18' W 002°42'7518.8 250 / 171014.010.8 18.416.218.5
2018-Jun-13 17:00N 37°00' W 001°24'3625.4 200 / 171012.210.8 20.216.219.3
2018-Jun-13 15:35N 37°31' W 001°02'214.2
2018-Jun-13 15:28N 37°33' W 001°01'3 0.3
2018-Jun-13 05:34N 37°36' W 000°59'0 1.0
2018-Jun-13 05:25N 37°36' W 000°59'2 4.6
2018-Jun-13 04:55N 37°33' W 000°59'714.8
2018-Jun-13 04:28N 37°32' W 000°51'917.9
2018-Jun-13 03:59N 37°32' W 000°40'917.7
2018-Jun-13 03:30N 37°36' W 000°31'917.7
2018-Jun-13 03:00N 37°40' W 000°21'917.9
2018-Jun-13 02:31N 37°43' W 000°10'1218.2
2018-Jun-13 01:53N 37°48' E 000°03'718.4
2018-Jun-13 01:29N 37°51' E 000°11'612.3
2018-Jun-13 01:00N 37°54' E 000°18'1623.3 250 / 191012.210.8 20.917.521.1
2018-Jun-13 00:19N 38°00' E 000°36'618.5
2018-Jun-13 00:00N 38°03' E 000°43'2418.3
2018-Jun-12 22:40N 38°13' E 001°11'317.9
2018-Jun-12 22:30N 38°14' E 001°15'13 8.4
2018-Jun-12 21:00N 38°18' E 001°30'5524.7 240 / 121013.510.8 21.017.821.9
2018-Jun-12 18:46N 38°42' E 002°33'518.1
2018-Jun-12 18:30N 38°44' E 002°39'918.2
2018-Jun-12 18:00N 38°48' E 002°50'1418.4
2018-Jun-12 17:15N 38°54' E 003°06'518.6
2018-Jun-12 17:00N 38°56' E 003°11'121095.7
2018-Jun-12 17:00N 38°48' E 003°00'2142.2 240 / 181011.210.8 21.518.521.5
2018-Jun-12 16:30N 39°01' E 003°21'8315.0
2018-Jun-12 11:00N 39°42' E 004°54'4823.9 220 / 251011.4 5.4 20.918.721.4
2018-Jun-12 09:00N 40°06' E 005°48'7318.4 220 / 121011.610.8 21.017.821.1
2018-Jun-12 05:00N 40°42' E 007°12'8320.7 280 / 101009.9 5.4 21.018.621.3
2018-Jun-12 01:00N 41°12' E 008°54'5018.9 240 / 221009.7 5.4 20.820.021.4
2018-Jun-11 22:23N 41°32' E 009°54'1410.0
2018-Jun-11 21:00N 41°36' E 010°12'1765.7 170 / 171009.710.8 22.320.622.9
2018-Jun-11 20:44N 41°44' E 010°32'419.0
2018-Jun-11 20:31N 41°46' E 010°38'918.8
2018-Jun-11 20:01N 41°49' E 010°50'1018.8
2018-Jun-11 19:30N 41°53' E 011°01'2518.5
2018-Jun-11 18:10N 42°04' E 011°31'315.0
2018-Jun-11 17:58N 42°05' E 011°35'16 1.0
2018-Jun-11 02:35N 42°05' E 011°14'219.2
2018-Jun-11 02:29N 42°06' E 011°11'919.0
2018-Jun-11 02:00N 42°08' E 010°59'918.6
2018-Jun-11 01:30N 42°14' E 010°49'918.8
2018-Jun-11 01:00N 42°19' E 010°39'8699.2
2018-Jun-11 01:00N 42°12' E 010°42'1633.3 090 / 171010.610.8 21.819.922.2
2018-Jun-11 00:30N 42°25' E 010°29'918.6
2018-Jun-11 00:00N 42°32' E 010°21'1217.5
2018-Jun-10 23:20N 42°39' E 010°08'515.9
2018-Jun-10 23:00N 42°43' E 010°03'815.6
2018-Jun-10 22:30N 42°51' E 010°01'815.4
2018-Jun-10 22:00N 42°58' E 010°00'815.2
2018-Jun-10 21:30N 43°06' E 009°59'815.3
2018-Jun-10 21:00N 43°12' E 009°53'12963.0
2018-Jun-10 21:00N 43°00' E 009°54'1939.7 110 / 61011.810.8 21.520.021.7
2018-Jun-10 20:30N 43°19' E 009°48'714.3
2018-Jun-10 20:00N 43°25' E 009°44'815.0
2018-Jun-10 19:30N 43°33' E 009°46'815.4
2018-Jun-10 19:00N 43°40' E 009°47'815.3
2018-Jun-10 18:30N 43°48' E 009°49'815.2
2018-Jun-10 18:00N 43°55' E 009°51'714.7
2018-Jun-10 17:30N 44°03' E 009°52'4 7.5
2018-Jun-10 17:00N 44°06' E 009°50'0 0.2
2018-Jun-10 16:29N 44°06' E 009°50'0 0.0
2018-Jun-10 15:59N 44°06' E 009°50'0 0.0
2018-Jun-10 15:26N 44°06' E 009°50'0 0.0
2018-Jun-10 14:59N 44°06' E 009°50'0 0.0
2018-Jun-10 14:29N 44°06' E 009°50'0 0.0
2018-Jun-10 13:29N 44°06' E 009°50'0 0.0
2018-Jun-10 12:59N 44°06' E 009°50'0 0.0
2018-Jun-10 12:29N 44°06' E 009°50'0 0.0
2018-Jun-10 11:59N 44°06' E 009°50'0 0.0
2018-Jun-10 11:29N 44°06' E 009°50'0 0.0
2018-Jun-10 10:59N 44°06' E 009°50'0 0.0
2018-Jun-10 10:29N 44°06' E 009°50'0 0.0
2018-Jun-10 09:59N 44°06' E 009°50'0 0.0
2018-Jun-10 09:29N 44°06' E 009°50'0 0.0
2018-Jun-10 08:56N 44°06' E 009°50'0 0.0
2018-Jun-10 08:29N 44°06' E 009°50'0 0.0
2018-Jun-10 07:59N 44°06' E 009°50'0 0.0
2018-Jun-10 07:26N 44°06' E 009°50'0 0.0
2018-Jun-10 06:59N 44°06' E 009°50'0 0.0
2018-Jun-10 06:29N 44°06' E 009°50'0 0.0
2018-Jun-10 05:59N 44°06' E 009°50'0 0.0
2018-Jun-10 05:29N 44°06' E 009°50'0 0.0
2018-Jun-10 04:59N 44°06' E 009°50'0 0.7
2018-Jun-10 04:29N 44°06' E 009°50'1 2.1
2018-Jun-10 04:00N 44°05' E 009°51'  
Track history (hours):
 
Tides and Currents Weather Stations Pressure Air Temp Water Temp Dewpoint Dewpoint Depression Visibility Wind Speed Wind Dir Waves Ship Positions

Britannia

Last reported at 2018-Jun-20 04:00 UTC. Time now 2018-Jun-20 04:00 UTC.
Position N 61°52' E 005°46'.

Length 330 m; draft 8.5 m.

Type: Passenger vessel. MMSI: 235106595.

Date/timePositionNaut miles runAvg speedWind from/ knotsBaromVisibWave heightAir tempDewpointWater temp
2018-Jun-20 04:00N 61°52' E 005°46'917.3
2018-Jun-20 03:30N 61°55' E 005°29'918.0
2018-Jun-20 03:00N 61°54' E 005°10'816.7
2018-Jun-20 02:30N 61°58' E 004°55'816.4
2018-Jun-20 02:00N 61°57' E 004°38'815.9
2018-Jun-20 01:29N 61°50' E 004°31'816.5
2018-Jun-20 01:00N 61°42' E 004°24'917.0
2018-Jun-20 00:30N 61°34' E 004°21'917.3
2018-Jun-20 00:00N 61°25' E 004°20'5447.2
2018-Jun-20 00:00N 61°30' E 004°18'1427.8 220 / 311010.110.8 10.2 8.810.8
2018-Jun-19 23:29N 61°16' E 004°19'918.6
2018-Jun-19 23:00N 61°07' E 004°18'1019.5
2018-Jun-19 22:29N 60°57' E 004°17'10420.0
2018-Jun-19 17:18N 59°14' E 004°40'3 9.0
2018-Jun-19 17:00N 59°12' E 004°36'7168.1 270 / 311015.6 5.4 13.0 6.812.2
2018-Jun-19 16:57N 59°10' E 004°49'716.6
2018-Jun-19 16:30N 59°07' E 005°02'917.2
2018-Jun-19 16:00N 59°06' E 005°19'816.4
2018-Jun-19 15:30N 59°04' E 005°34'713.5
2018-Jun-19 15:00N 58°59' E 005°43'1 1.3
2018-Jun-19 14:30N 58°59' E 005°44'0 0.0
2018-Jun-19 14:00N 58°59' E 005°44'0 0.0
2018-Jun-19 13:30N 58°59' E 005°44'0 0.0
2018-Jun-19 13:00N 58°59' E 005°44'0 0.0
2018-Jun-19 12:30N 58°59' E 005°44'0 0.0
2018-Jun-19 12:00N 58°59' E 005°44'0 0.0
2018-Jun-19 11:30N 58°59' E 005°44'0 0.0
2018-Jun-19 11:00N 58°59' E 005°44'0 0.0
2018-Jun-19 10:30N 58°59' E 005°44'0 0.0
2018-Jun-19 10:00N 58°59' E 005°44'0 0.0
2018-Jun-19 09:30N 58°59' E 005°44'0 0.0
2018-Jun-19 09:00N 58°59' E 005°44'0 0.0
2018-Jun-19 08:30N 58°59' E 005°44'0 0.0
2018-Jun-19 08:00N 58°59' E 005°44'0 0.0
2018-Jun-19 07:30N 58°59' E 005°44'0 0.0
2018-Jun-19 07:00N 58°59' E 005°44'0 0.0
2018-Jun-19 06:30N 58°59' E 005°44'0 0.0
2018-Jun-19 06:00N 58°59' E 005°44'0 0.3
2018-Jun-19 05:30N 58°59' E 005°44'2 4.9
2018-Jun-19 05:00N 59°00' E 005°41'5 9.4
2018-Jun-19 04:30N 59°02' E 005°32'714.4
2018-Jun-19 04:00N 58°55' E 005°33'612.8
2018-Jun-19 03:30N 58°50' E 005°27'917.5
2018-Jun-19 03:00N 58°42' E 005°17'917.9
2018-Jun-19 02:30N 58°34' E 005°11'918.0
2018-Jun-19 01:59N 58°25' E 005°05'3216.2
2018-Jun-19 00:00N 57°54' E 004°48'5217.3 260 / 351007.4 5.4 13.510.213.9
2018-Jun-18 21:00N 57°06' E 004°12'16020.0 210 / 181010.610.8 14.010.212.9
2018-Jun-18 13:00N 54°30' E 003°06'6917.3 270 / 241015.510.8 14.711.313.9
2018-Jun-18 09:00N 53°24' E 002°30'2916.6 250 / 251016.010.8 14.813.713.5
2018-Jun-18 07:15N 52°55' E 002°28'418.0
2018-Jun-18 07:00N 52°51' E 002°27'1118.5
2018-Jun-18 06:25N 52°40' E 002°24'818.4
2018-Jun-18 06:00N 52°32' E 002°22'1514.5
2018-Jun-18 05:00N 52°18' E 002°18'1536.3 240 / 221016.3 2.2 14.313.412.9
2018-Jun-18 04:34N 52°03' E 002°15'221.7
2018-Jun-18 04:29N 52°01' E 002°14'1221.3
2018-Jun-18 03:54N 51°49' E 002°10'821.2
2018-Jun-18 03:30N 51°41' E 002°04'1121.2
2018-Jun-18 03:00N 51°32' E 001°56'918.5
2018-Jun-18 02:30N 51°23' E 002°02'1121.1
2018-Jun-18 02:00N 51°15' E 001°52'1121.8
2018-Jun-18 01:30N 51°06' E 001°41'1121.3
2018-Jun-18 01:00N 50°59' E 001°29'195.0
2018-Jun-18 01:00N 51°00' E 001°30'1123.7 210 / 231017.6 5.4 14.514.114.1
2018-Jun-18 00:30N 50°49' E 001°23'1019.2
2018-Jun-18 00:00N 50°41' E 001°17'1120.7
2018-Jun-17 23:29N 50°33' E 001°04'1020.6
2018-Jun-17 23:00N 50°30' E 000°49'1121.2
2018-Jun-17 22:28N 50°27' E 000°33'612.6
2018-Jun-17 22:00N 50°24' E 000°24'1430.0 220 / 251019.0 5.4 14.413.713.5
2018-Jun-17 21:32N 50°22' E 000°03'620.1
2018-Jun-17 21:15N 50°22' W 000°06'719.9
2018-Jun-17 20:52N 50°26' W 000°17'719.6
2018-Jun-17 20:31N 50°29' W 000°27'1019.2
2018-Jun-17 20:01N 50°33' W 000°40'918.4
2018-Jun-17 19:31N 50°38' W 000°53'510.1
2018-Jun-17 19:01N 50°42' W 000°58'816.8
2018-Jun-17 18:31N 50°46' W 001°09'611.7
2018-Jun-17 18:01N 50°48' W 001°18'511.0
2018-Jun-17 17:30N 50°53' W 001°23'1 1.9
2018-Jun-17 16:58N 50°53' W 001°24'0 0.0
2018-Jun-17 16:28N 50°53' W 001°24'0 0.0
2018-Jun-17 15:58N 50°53' W 001°24'0 0.0
2018-Jun-17 15:28N 50°53' W 001°24'0 0.0
2018-Jun-17 14:58N 50°53' W 001°24'0 0.0
2018-Jun-17 14:28N 50°53' W 001°24'0 0.0
2018-Jun-17 13:58N 50°53' W 001°24'0 0.0
2018-Jun-17 13:28N 50°53' W 001°24'0 0.0
2018-Jun-17 12:58N 50°53' W 001°24'0 0.0
2018-Jun-17 12:28N 50°53' W 001°24'0 0.0
2018-Jun-17 11:58N 50°53' W 001°24'0 0.0
2018-Jun-17 11:28N 50°53' W 001°24'0 0.0
2018-Jun-17 10:58N 50°53' W 001°24'0 0.0
2018-Jun-17 10:25N 50°53' W 001°24'0 0.0
2018-Jun-17 09:58N 50°53' W 001°24'0 0.0
2018-Jun-17 09:28N 50°53' W 001°24'0 0.0
2018-Jun-17 08:58N 50°53' W 001°24'0 0.0
2018-Jun-17 08:28N 50°53' W 001°24'0 0.0
2018-Jun-17 07:58N 50°53' W 001°24'0 0.0
2018-Jun-17 07:25N 50°53' W 001°24'0 0.0
2018-Jun-17 06:58N 50°53' W 001°24'0 0.0
2018-Jun-17 06:28N 50°53' W 001°24'0 0.0
2018-Jun-17 05:58N 50°53' W 001°24'0 0.0
2018-Jun-17 05:25N 50°53' W 001°24'0 0.0
2018-Jun-17 04:58N 50°53' W 001°24'0 0.4
2018-Jun-17 04:30N 50°53' W 001°24'3 5.2
2018-Jun-17 04:00N 50°52' W 001°21'4 8.3
2018-Jun-17 03:30N 50°48' W 001°18'611.4
2018-Jun-17 03:01N 50°46' W 001°10'917.7
2018-Jun-17 02:31N 50°41' W 000°58'5 9.6
2018-Jun-17 02:00N 50°36' W 000°59'611.7
2018-Jun-17 01:30N 50°31' W 001°04'1017.2
2018-Jun-17 00:57N 50°28' W 001°18'919.7
2018-Jun-17 00:30N 50°25' W 001°32'1220.3
2018-Jun-16 23:55N 50°22' W 001°50'1020.0
2018-Jun-16 23:26N 50°19' W 002°04'818.2
2018-Jun-16 23:00N 50°12' W 002°09'1118.6
2018-Jun-16 22:26N 50°02' W 002°15'818.2
2018-Jun-16 22:00N 49°57' W 002°24'1420.0
2018-Jun-16 21:17N 49°53' W 002°45'619.5
2018-Jun-16 21:00N 49°51' W 002°53'12742.8
2018-Jun-16 21:00N 49°54' W 002°36'2143.2 250 / 101017.310.8
2018-Jun-16 20:30N 49°45' W 003°05'1019.3
2018-Jun-16 20:00N 49°39' W 003°17'5217.1
2018-Jun-16 17:00N 49°06' W 004°18'2031.4 250 / 121021.310.8 15.511.816.1
2018-Jun-16 16:21N 48°55' W 004°43'720.3
2018-Jun-16 16:00N 48°51' W 004°52'1020.7
2018-Jun-16 15:30N 48°45' W 005°05'1020.6
2018-Jun-16 15:00N 48°37' W 005°16'1020.1
2018-Jun-16 14:30N 48°29' W 005°25'4618.2
2018-Jun-16 12:00N 47°48' W 005°54'13218.8 300 / 251017.910.8 15.313.315.7
2018-Jun-16 05:00N 45°54' W 007°30'7619.0 240 / 191018.4 2.2 15.811.616.6
2018-Jun-16 01:00N 44°48' W 008°24'15619.5 190 / 101020.010.8 15.014.116.9
2018-Jun-15 17:00N 42°24' W 009°48'10220.4 040 / 271018.110.8 20.010.915.9
2018-Jun-15 12:00N 40°42' W 009°48'2720.1 030 / 291019.110.8 16.713.316.8
2018-Jun-15 10:38N 40°15' W 009°51'219.3
2018-Jun-15 10:31N 40°12' W 009°52'1019.6
2018-Jun-15 10:00N 40°02' W 009°52'919.2
2018-Jun-15 09:31N 39°53' W 009°51'1019.3
2018-Jun-15 09:01N 39°43' W 009°51'1019.4
2018-Jun-15 08:30N 39°34' W 009°52'1019.5
2018-Jun-15 08:00N 39°24' W 009°53'1019.3
2018-Jun-15 07:30N 39°14' W 009°52'1019.2
2018-Jun-15 07:00N 39°05' W 009°51'1019.3
2018-Jun-15 06:30N 38°55' W 009°51'918.8
2018-Jun-15 06:00N 38°46' W 009°51'918.6
2018-Jun-15 05:30N 38°37' W 009°50'919.0
2018-Jun-15 05:00N 38°27' W 009°47'1019.0
2018-Jun-15 04:30N 38°18' W 009°44'918.8
2018-Jun-15 04:00N 38°09' W 009°41'918.9
2018-Jun-15 03:30N 37°60' W 009°39'918.7
2018-Jun-15 03:01N 37°51' W 009°36'1018.8
2018-Jun-15 02:30N 37°41' W 009°33'919.0
2018-Jun-15 02:00N 37°32' W 009°31'918.6
2018-Jun-15 01:30N 37°23' W 009°28'918.2
2018-Jun-15 01:01N 37°14' W 009°25'3150.1
2018-Jun-15 01:00N 37°12' W 009°24'714.1 030 / 271014.410.8 16.715.217.0
2018-Jun-15 00:30N 37°05' W 009°23'918.1
2018-Jun-14 23:59N 36°56' W 009°20'817.7
2018-Jun-14 23:31N 36°49' W 009°14'918.3
2018-Jun-14 23:01N 36°43' W 009°06'918.6
2018-Jun-14 22:30N 36°40' W 008°55'918.6
2018-Jun-14 22:00N 36°38' W 008°44'1818.7
2018-Jun-14 21:04N 36°32' W 008°23'118.8
2018-Jun-14 21:00N 36°32' W 008°21'726811.0
2018-Jun-14 21:00N 36°30' W 008°30'5621.3 350 / 251014.310.8 18.014.618.9
2018-Jun-14 18:22N 36°16' W 007°23'2115.3
2018-Jun-14 17:00N 36°06' W 007°00'6919.6 330 / 131013.0 5.4 20.116.318.4
2018-Jun-14 13:28N 35°58' W 005°35'612.7
2018-Jun-14 13:00N 35°54' W 005°30'7274.5 310 / 251014.6 5.4 18.516.916.1
2018-Jun-14 12:58N 36°01' W 005°27'511.3
2018-Jun-14 12:30N 36°05' W 005°23'4 0.7
2018-Jun-14 06:05N 36°09' W 005°22'0 0.0
2018-Jun-14 05:59N 36°09' W 005°22'0 0.2
2018-Jun-14 05:30N 36°09' W 005°22'3 5.3
2018-Jun-14 05:01N 36°06' W 005°22'611.2
2018-Jun-14 04:30N 36°06' W 005°15'917.6
2018-Jun-14 03:59N 36°08' W 005°04'816.9
2018-Jun-14 03:30N 36°08' W 004°54'916.6
2018-Jun-14 02:56N 36°10' W 004°42'4414.9
2018-Jun-14 00:00N 36°12' W 003°48'5417.9 260 / 251013.110.8 17.515.816.8
2018-Jun-13 21:00N 36°18' W 002°42'7518.8 250 / 171014.010.8 18.416.218.5
2018-Jun-13 17:00N 37°00' W 001°24'3625.4 200 / 171012.210.8 20.216.219.3
2018-Jun-13 15:35N 37°31' W 001°02'214.2
2018-Jun-13 15:28N 37°33' W 001°01'3 0.3
2018-Jun-13 05:34N 37°36' W 000°59'0 1.0
2018-Jun-13 05:25N 37°36' W 000°59'2 4.6
2018-Jun-13 04:55N 37°33' W 000°59'714.8
2018-Jun-13 04:28N 37°32' W 000°51'917.9
2018-Jun-13 03:59N 37°32' W 000°40'917.7
2018-Jun-13 03:30N 37°36' W 000°31'917.7
2018-Jun-13 03:00N 37°40' W 000°21'917.9
2018-Jun-13 02:31N 37°43' W 000°10'1218.2
2018-Jun-13 01:53N 37°48' E 000°03'718.4
2018-Jun-13 01:29N 37°51' E 000°11'612.3
2018-Jun-13 01:00N 37°54' E 000°18'1623.3 250 / 191012.210.8 20.917.521.1
2018-Jun-13 00:19N 38°00' E 000°36'618.5
2018-Jun-13 00:00N 38°03' E 000°43'2418.3
2018-Jun-12 22:40N 38°13' E 001°11'317.9
2018-Jun-12 22:30N 38°14' E 001°15'13 8.4
2018-Jun-12 21:00N 38°18' E 001°30'5524.7 240 / 121013.510.8 21.017.821.9
2018-Jun-12 18:46N 38°42' E 002°33'518.1
2018-Jun-12 18:30N 38°44' E 002°39'918.2
2018-Jun-12 18:00N 38°48' E 002°50'1418.4
2018-Jun-12 17:15N 38°54' E 003°06'518.6
2018-Jun-12 17:00N 38°56' E 003°11'121095.7
2018-Jun-12 17:00N 38°48' E 003°00'2142.2 240 / 181011.210.8 21.518.521.5
2018-Jun-12 16:30N 39°01' E 003°21'8315.0
2018-Jun-12 11:00N 39°42' E 004°54'4823.9 220 / 251011.4 5.4 20.918.721.4
2018-Jun-12 09:00N 40°06' E 005°48'7318.4 220 / 121011.610.8 21.017.821.1
2018-Jun-12 05:00N 40°42' E 007°12'8320.7 280 / 101009.9 5.4 21.018.621.3
2018-Jun-12 01:00N 41°12' E 008°54'5018.9 240 / 221009.7 5.4 20.820.021.4
2018-Jun-11 22:23N 41°32' E 009°54'1410.0
2018-Jun-11 21:00N 41°36' E 010°12'1765.7 170 / 171009.710.8 22.320.622.9
2018-Jun-11 20:44N 41°44' E 010°32'419.0
2018-Jun-11 20:31N 41°46' E 010°38'918.8
2018-Jun-11 20:01N 41°49' E 010°50'1018.8
2018-Jun-11 19:30N 41°53' E 011°01'2518.5
2018-Jun-11 18:10N 42°04' E 011°31'315.0
2018-Jun-11 17:58N 42°05' E 011°35'16 1.0
2018-Jun-11 02:35N 42°05' E 011°14'219.2
2018-Jun-11 02:29N 42°06' E 011°11'919.0
2018-Jun-11 02:00N 42°08' E 010°59'918.6
2018-Jun-11 01:30N 42°14' E 010°49'918.8
2018-Jun-11 01:00N 42°19' E 010°39'8699.2
2018-Jun-11 01:00N 42°12' E 010°42'1633.3 090 / 171010.610.8 21.819.922.2
2018-Jun-11 00:30N 42°25' E 010°29'918.6
2018-Jun-11 00:00N 42°32' E 010°21'1217.5
2018-Jun-10 23:20N 42°39' E 010°08'515.9
2018-Jun-10 23:00N 42°43' E 010°03'815.6
2018-Jun-10 22:30N 42°51' E 010°01'815.4
2018-Jun-10 22:00N 42°58' E 010°00'815.2
2018-Jun-10 21:30N 43°06' E 009°59'815.3
2018-Jun-10 21:00N 43°12' E 009°53'12963.0
2018-Jun-10 21:00N 43°00' E 009°54'1939.7 110 / 61011.810.8 21.520.021.7
2018-Jun-10 20:30N 43°19' E 009°48'714.3
2018-Jun-10 20:00N 43°25' E 009°44'815.0
2018-Jun-10 19:30N 43°33' E 009°46'815.4
2018-Jun-10 19:00N 43°40' E 009°47'815.3
2018-Jun-10 18:30N 43°48' E 009°49'815.2
2018-Jun-10 18:00N 43°55' E 009°51'714.7
2018-Jun-10 17:30N 44°03' E 009°52'4 7.5
2018-Jun-10 17:00N 44°06' E 009°50'0 0.2
2018-Jun-10 16:29N 44°06' E 009°50'0 0.0
2018-Jun-10 15:59N 44°06' E 009°50'0 0.0
2018-Jun-10 15:26N 44°06' E 009°50'0 0.0
2018-Jun-10 14:59N 44°06' E 009°50'0 0.0
2018-Jun-10 14:29N 44°06' E 009°50'0 0.0
2018-Jun-10 13:29N 44°06' E 009°50'0 0.0
2018-Jun-10 12:59N 44°06' E 009°50'0 0.0
2018-Jun-10 12:29N 44°06' E 009°50'0 0.0
2018-Jun-10 11:59N 44°06' E 009°50'0 0.0
2018-Jun-10 11:29N 44°06' E 009°50'0 0.0
2018-Jun-10 10:59N 44°06' E 009°50'0 0.0
2018-Jun-10 10:29N 44°06' E 009°50'0 0.0
2018-Jun-10 09:59N 44°06' E 009°50'0 0.0
2018-Jun-10 09:29N 44°06' E 009°50'0 0.0
2018-Jun-10 08:56N 44°06' E 009°50'0 0.0
2018-Jun-10 08:29N 44°06' E 009°50'0 0.0
2018-Jun-10 07:59N 44°06' E 009°50'0 0.0
2018-Jun-10 07:26N 44°06' E 009°50'0 0.0
2018-Jun-10 06:59N 44°06' E 009°50'0 0.0
2018-Jun-10 06:29N 44°06' E 009°50'0 0.0
2018-Jun-10 05:59N 44°06' E 009°50'0 0.0
2018-Jun-10 05:29N 44°06' E 009°50'0 0.0
2018-Jun-10 04:59N 44°06' E 009°50'0 0.7
2018-Jun-10 04:29N 44°06' E 009°50'1 2.1
2018-Jun-10 04:00N 44°05' E 009°51'  

Dump ship's entire track history